createdAt,value
2023-03-21T00:04:21.350Z,100337.13
2023-03-21T00:09:43.247Z,100336.22
2023-03-21T00:15:10.334Z,100306.38
2023-03-21T00:20:33.495Z,100318.09
2023-03-21T00:25:55.489Z,100317.19
2023-03-21T00:31:18.227Z,100311.06
2023-03-21T00:36:40.152Z,100311.19
2023-03-21T00:42:02.363Z,100300.69
2023-03-21T00:47:25.915Z,100312.69
2023-03-21T00:52:47.900Z,100318.91
2023-03-21T00:58:10.111Z,100317.22
2023-03-21T01:03:33.494Z,100300.50
2023-03-21T01:08:55.368Z,100315.94
2023-03-21T01:14:22.908Z,100314.19
2023-03-21T01:19:52.027Z,100306.19
2023-03-21T01:25:22.269Z,100302.47
2023-03-21T01:30:50.286Z,100297.59
2023-03-21T01:36:24.903Z,100308.91
2023-03-21T01:41:47.179Z,100302.94
2023-03-21T01:47:12.281Z,100282.63
2023-03-21T01:52:38.841Z,100291.88
2023-03-21T01:58:06.352Z,100288.38
2023-03-21T02:03:36.157Z,100276.03
2023-03-21T02:09:05.307Z,100275.75
2023-03-21T02:14:29.556Z,100270.66
2023-03-21T02:20:32.937Z,100285.91
2023-03-21T02:26:12.816Z,100280.72
2023-03-21T02:32:05.966Z,100284.13
2023-03-21T02:37:58.273Z,100274.31
2023-03-21T02:43:37.195Z,100284.41
2023-03-21T02:49:03.015Z,100294.47
2023-03-21T02:54:41.855Z,100295.31
2023-03-21T03:00:16.981Z,100296.38
2023-03-21T03:05:48.151Z,100287.59
2023-03-21T03:11:27.927Z,100298.78
2023-03-21T03:17:08.723Z,100304.84
2023-03-21T03:23:03.671Z,100297.31
2023-03-21T03:28:30.297Z,100295.13
2023-03-21T03:33:53.937Z,100306.81
2023-03-21T03:39:18.124Z,100307.25
2023-03-21T03:44:40.134Z,100308.81
2023-03-21T03:50:10.890Z,100307.25
2023-03-21T03:55:33.752Z,100306.06
2023-03-21T04:00:56.007Z,100311.25
2023-03-21T04:06:19.353Z,100315.75
2023-03-21T04:11:41.221Z,100314.75
2023-03-21T04:17:03.081Z,100306.22
2023-03-21T04:22:25.265Z,100307.88
2023-03-21T04:27:47.188Z,100315.44
2023-03-21T04:33:09.072Z,100323.16
2023-03-21T04:38:31.031Z,100314.72
2023-03-21T04:43:54.334Z,100310.50
2023-03-21T04:49:16.321Z,100320.53
2023-03-21T04:54:38.160Z,100325.63
2023-03-21T04:59:59.990Z,100317.94
2023-03-21T05:05:21.884Z,100325.56
2023-03-21T05:10:43.811Z,100313.34
2023-03-21T05:16:06.211Z,100318.53
2023-03-21T05:21:28.066Z,100322.28
2023-03-21T05:26:50.018Z,100334.84
2023-03-21T05:32:11.842Z,100330.56
2023-03-21T05:37:33.795Z,100318.50
2023-03-21T05:42:55.666Z,100338.63
2023-03-21T05:48:17.553Z,100345.66
2023-03-21T05:53:39.365Z,100349.97
2023-03-21T05:59:01.300Z,100355.41
2023-03-21T06:04:23.185Z,100345.97
2023-03-21T06:09:45.121Z,100365.59
2023-03-21T06:15:07.448Z,100354.69
2023-03-21T06:20:29.361Z,100377.31
2023-03-21T06:25:51.199Z,100363.84
2023-03-21T06:31:13.132Z,100366.28
2023-03-21T06:36:35.047Z,100379.75
2023-03-21T06:41:57.609Z,100379.03
2023-03-21T06:47:19.463Z,100385.06
2023-03-21T06:52:41.399Z,100379.06
2023-03-21T06:58:03.282Z,100382.94
2023-03-21T07:03:25.302Z,100389.50
2023-03-21T07:08:47.210Z,100399.72
2023-03-21T07:14:09.067Z,100403.34
2023-03-21T07:19:30.961Z,100407.75
2023-03-21T07:25:04.110Z,100412.38
2023-03-21T07:30:27.128Z,100407.88
2023-03-21T07:35:53.761Z,100405.66
2023-03-21T07:46:38.300Z,100396.69
2023-03-21T07:52:00.730Z,100407.84
2023-03-21T07:57:22.865Z,100407.97
2023-03-21T08:02:44.841Z,100407.50
2023-03-21T08:08:07.502Z,100410.66
2023-03-21T08:13:29.481Z,100422.13
2023-03-21T08:18:51.312Z,100428.22
2023-03-21T08:24:13.146Z,100425.03
2023-03-21T08:29:35.018Z,100429.47
2023-03-21T08:35:03.379Z,100429.22
2023-03-21T08:40:25.273Z,100412.28
2023-03-21T08:45:47.207Z,100424.75
2023-03-21T08:51:09.114Z,100421.28
2023-03-21T08:56:30.957Z,100437.56
2023-03-21T09:01:52.879Z,100437.50
2023-03-21T09:07:14.760Z,100440.09
2023-03-21T09:12:36.721Z,100449.94
2023-03-21T09:17:59.425Z,100452.03
2023-03-21T09:23:21.328Z,100460.47
2023-03-21T09:28:43.231Z,100466.34
2023-03-21T09:34:05.220Z,100462.81
2023-03-21T09:39:27.183Z,100470.09
2023-03-21T09:44:58.396Z,100475.00
2023-03-21T09:50:24.826Z,100468.31
2023-03-21T09:55:47.137Z,100474.34
2023-03-21T10:01:08.992Z,100475.84
2023-03-21T10:06:31.316Z,100477.41
2023-03-21T10:11:56.857Z,100476.72
2023-03-21T10:17:41.780Z,100458.38
2023-03-21T10:23:07.003Z,100478.72
2023-03-21T10:28:49.825Z,100478.31
2023-03-21T10:34:26.400Z,100485.59
2023-03-21T10:39:53.843Z,100486.78
2023-03-21T10:45:19.299Z,100486.94
2023-03-21T10:50:42.995Z,100476.50
2023-03-21T10:56:09.807Z,100496.50
2023-03-21T11:01:37.522Z,100489.56
2023-03-21T11:07:05.839Z,100487.97
2023-03-21T11:12:34.765Z,100483.91
2023-03-21T11:17:58.032Z,100484.88
2023-03-21T11:23:21.201Z,100488.69
2023-03-21T11:28:43.553Z,100463.09
2023-03-21T11:34:08.467Z,100477.44
2023-03-21T11:39:33.797Z,100471.56
2023-03-21T11:45:12.479Z,100467.22
2023-03-21T11:50:37.450Z,100457.88
2023-03-21T11:56:25.368Z,100461.81
2023-03-21T12:02:16.197Z,100443.28
2023-03-21T12:07:51.519Z,100467.13
2023-03-21T12:13:37.089Z,100456.59
2023-03-21T12:19:20.584Z,100456.41
2023-03-21T12:24:54.243Z,100457.53
2023-03-21T12:30:21.860Z,100455.66
2023-03-21T12:35:52.497Z,100443.63
2023-03-21T12:41:28.420Z,100450.13
2023-03-21T12:47:12.157Z,100447.38
2023-03-21T12:52:39.165Z,100436.16
2023-03-21T12:58:15.678Z,100439.97
2023-03-21T13:03:42.392Z,100444.81
2023-03-21T13:09:13.003Z,100446.78
2023-03-21T13:14:41.882Z,100436.50
2023-03-21T13:20:45.864Z,100450.25
2023-03-21T13:26:11.924Z,100451.38
2023-03-21T13:31:45.376Z,100447.63
2023-03-21T13:37:18.035Z,100429.28
2023-03-21T13:42:45.326Z,100451.94
2023-03-21T13:48:27.965Z,100452.72
2023-03-21T13:54:08.141Z,100450.09
2023-03-21T13:59:40.945Z,100451.66
2023-03-21T14:05:07.659Z,100437.34
2023-03-21T14:10:42.162Z,100449.28
2023-03-21T14:16:10.563Z,100439.75
2023-03-21T14:21:35.768Z,100446.38
2023-03-21T14:26:57.896Z,100437.81
2023-03-21T14:32:25.311Z,100443.81
2023-03-21T14:37:47.895Z,100433.44
2023-03-21T14:43:11.878Z,100433.56
2023-03-21T14:48:34.797Z,100431.50
2023-03-21T14:53:57.447Z,100415.31
2023-03-21T14:59:23.380Z,100426.75
2023-03-21T15:04:57.683Z,100433.94
2023-03-21T15:10:20.064Z,100419.03
2023-03-21T15:15:42.994Z,100419.41
2023-03-21T15:21:10.522Z,100421.56
2023-03-21T15:26:32.514Z,100424.81
2023-03-21T15:31:54.461Z,100403.56
2023-03-21T15:37:23.387Z,100398.91
2023-03-21T15:42:45.387Z,100419.69
2023-03-21T15:48:12.886Z,100410.88
2023-03-21T15:53:37.245Z,100417.69
2023-03-21T15:59:02.013Z,100405.72
2023-03-21T16:04:24.072Z,100421.06
2023-03-21T16:09:46.848Z,100421.06
2023-03-21T16:15:09.167Z,100417.38
2023-03-21T16:20:37.068Z,100425.69
2023-03-21T16:25:59.176Z,100422.13
2023-03-21T16:31:27.512Z,100430.34
2023-03-21T16:36:49.366Z,100414.72
2023-03-21T16:42:12.071Z,100419.31
2023-03-21T16:47:33.998Z,100423.47
2023-03-21T16:52:57.411Z,100424.03
2023-03-21T16:58:19.254Z,100425.31
2023-03-21T17:03:41.607Z,100430.09
2023-03-21T17:09:03.590Z,100444.41
2023-03-21T17:14:25.482Z,100458.53
2023-03-21T17:19:47.388Z,100450.47
2023-03-21T17:25:09.381Z,100460.00
2023-03-21T17:30:38.204Z,100461.03
2023-03-21T17:36:00.576Z,100463.16
2023-03-21T17:41:22.425Z,100476.94
2023-03-21T17:46:44.681Z,100484.78
2023-03-21T17:52:06.571Z,100473.09
2023-03-21T17:57:28.438Z,100488.72
2023-03-21T18:02:51.296Z,100475.31
2023-03-21T18:08:13.268Z,100506.97
2023-03-21T18:13:35.158Z,100508.00
2023-03-21T18:18:57.170Z,100503.19
2023-03-21T18:24:19.050Z,100515.00
2023-03-21T18:35:23.013Z,100521.25
2023-03-21T18:40:44.909Z,100494.94
2023-03-21T18:46:06.994Z,100510.41
2023-03-21T18:51:28.826Z,100514.69
2023-03-21T19:02:33.342Z,100522.59
2023-03-21T19:07:55.397Z,100520.13
2023-03-21T19:13:17.320Z,100521.19
2023-03-21T19:18:53.851Z,100513.63
2023-03-21T19:24:27.198Z,100503.28
2023-03-21T19:30:06.572Z,100512.69
2023-03-21T19:35:32.346Z,100511.94
2023-03-21T19:40:59.769Z,100521.53
2023-03-21T19:46:22.345Z,100519.06
2023-03-21T19:51:44.196Z,100516.44
2023-03-21T19:57:07.309Z,100501.25
2023-03-21T20:02:37.125Z,100522.69
2023-03-21T20:07:59.140Z,100532.22
2023-03-21T20:13:20.951Z,100513.06
2023-03-21T20:18:42.812Z,100537.81
2023-03-21T20:24:05.042Z,100527.56
2023-03-21T20:35:20.804Z,100550.78
2023-03-21T20:40:49.283Z,100543.31
2023-03-21T20:46:12.123Z,100556.06
2023-03-21T20:57:15.778Z,100549.34
2023-03-21T21:02:37.582Z,100544.28
2023-03-21T21:08:01.100Z,100522.22
2023-03-21T21:13:22.978Z,100534.94
2023-03-21T21:18:44.810Z,100525.59
2023-03-21T21:24:07.599Z,100522.19
2023-03-21T21:29:29.632Z,100530.81
2023-03-21T21:34:51.489Z,100532.53
2023-03-21T21:40:13.524Z,100526.56
2023-03-21T21:45:35.488Z,100532.66
2023-03-21T21:50:57.512Z,100525.91
2023-03-21T21:56:19.715Z,100523.44
2023-03-21T22:01:42.065Z,100526.03
2023-03-21T22:07:03.922Z,100525.28
2023-03-21T22:12:25.796Z,100542.34
2023-03-21T22:17:47.657Z,100539.81
2023-03-21T22:23:09.498Z,100539.03
2023-03-21T22:28:31.363Z,100539.00
2023-03-21T22:33:53.184Z,100536.50
2023-03-21T22:39:15.013Z,100538.22
2023-03-21T22:44:36.855Z,100534.84
2023-03-21T22:49:59.110Z,100539.16
2023-03-21T22:55:21.009Z,100518.75
2023-03-21T23:00:42.937Z,100533.22
2023-03-21T23:06:04.950Z,100518.75
2023-03-21T23:11:26.813Z,100534.09
2023-03-21T23:16:49.701Z,100518.81
2023-03-21T23:22:11.593Z,100529.91
2023-03-21T23:27:33.471Z,100533.31
2023-03-21T23:32:55.755Z,100537.59
2023-03-21T23:38:17.616Z,100530.78
2023-03-21T23:43:39.612Z,100529.09
2023-03-21T23:49:01.603Z,100524.88
2023-03-21T23:54:23.449Z,100525.69
2023-03-21T23:59:45.295Z,100519.75
